createdAt,value
2023-05-19T00:00:00.104Z,1026
2023-05-19T00:05:00.112Z,1025.9
2023-05-19T00:10:00.154Z,1026
2023-05-19T00:15:00.140Z,1025.9
2023-05-19T00:20:00.145Z,1025.9
2023-05-19T00:25:00.163Z,1025.9
2023-05-19T00:30:00.150Z,1025.9
2023-05-19T00:35:00.122Z,1025.9
2023-05-19T00:40:00.153Z,1025.8
2023-05-19T00:45:00.150Z,1025.8
2023-05-19T00:50:00.139Z,1025.7
2023-05-19T00:55:00.117Z,1025.7
2023-05-19T01:00:00.103Z,1025.8
2023-05-19T01:05:00.127Z,1025.7
2023-05-19T01:10:00.129Z,1025.7
2023-05-19T01:15:00.142Z,1025.8
2023-05-19T01:20:00.161Z,1025.8
2023-05-19T01:25:00.149Z,1025.7
2023-05-19T01:30:00.152Z,1025.8
2023-05-19T01:35:00.143Z,1025.8
2023-05-19T01:40:00.162Z,1025.7
2023-05-19T01:45:00.149Z,1025.7
2023-05-19T01:50:00.176Z,1025.7
2023-05-19T01:55:00.148Z,1025.7
2023-05-19T02:00:00.158Z,1025.7
2023-05-19T02:05:00.111Z,1025.7
2023-05-19T02:10:00.177Z,1025.7
2023-05-19T02:15:00.135Z,1025.6
2023-05-19T02:20:00.143Z,1025.6
2023-05-19T02:25:00.129Z,1025.5
2023-05-19T02:30:00.151Z,1025.6
2023-05-19T02:35:00.107Z,1025.6
2023-05-19T02:40:00.125Z,1025.5
2023-05-19T02:45:00.121Z,1025.6
2023-05-19T02:50:00.191Z,1025.7
2023-05-19T02:55:00.125Z,1025.7
2023-05-19T03:00:00.156Z,1025.6
2023-05-19T03:05:00.111Z,1025.7
2023-05-19T03:10:00.150Z,1025.6
2023-05-19T03:15:00.121Z,1025.5
2023-05-19T03:20:00.173Z,1025.5
2023-05-19T03:25:00.120Z,1025.5
2023-05-19T03:30:00.133Z,1025.5
2023-05-19T03:35:00.121Z,1025.4
2023-05-19T03:40:00.143Z,1025.5
2023-05-19T03:45:00.136Z,1025.4
2023-05-19T03:50:00.163Z,1025.5
2023-05-19T03:55:00.148Z,1025.6
2023-05-19T04:00:00.140Z,1025.6
2023-05-19T04:05:00.109Z,1025.5
2023-05-19T04:10:00.179Z,1025.6
2023-05-19T04:15:00.164Z,1025.6
2023-05-19T04:20:00.138Z,1025.6
2023-05-19T04:25:00.138Z,1025.6
2023-05-19T04:30:00.182Z,1025.6
2023-05-19T04:35:00.123Z,1025.6
2023-05-19T04:40:00.130Z,1025.7
2023-05-19T04:45:00.131Z,1025.7
2023-05-19T04:50:00.138Z,1025.8
2023-05-19T04:55:00.096Z,1025.8
2023-05-19T05:00:00.250Z,1025.8
2023-05-19T05:05:00.144Z,1025.9
2023-05-19T05:10:00.138Z,1025.8
2023-05-19T05:15:00.098Z,1025.7
2023-05-19T05:20:00.180Z,1025.7
2023-05-19T05:25:00.117Z,1025.7
2023-05-19T05:30:00.119Z,1025.7
2023-05-19T05:35:00.164Z,1025.7
2023-05-19T05:40:00.125Z,1025.7
2023-05-19T05:45:00.164Z,1025.7
2023-05-19T05:50:00.182Z,1025.7
2023-05-19T05:55:00.132Z,1025.7
2023-05-19T06:00:00.122Z,1025.7
2023-05-19T06:05:00.183Z,1025.6
2023-05-19T06:10:00.139Z,1025.7
2023-05-19T06:15:00.141Z,1025.6
2023-05-19T06:20:00.116Z,1025.6
2023-05-19T06:25:00.158Z,1025.5
2023-05-19T06:30:00.150Z,1025.5
2023-05-19T06:35:00.139Z,1025.4
2023-05-19T06:40:00.159Z,1025.5
2023-05-19T06:45:00.199Z,1025.5
2023-05-19T06:50:00.131Z,1025.6
2023-05-19T06:55:00.159Z,1025.6
2023-05-19T07:00:00.158Z,1025.5
2023-05-19T07:05:00.144Z,1025.5
2023-05-19T07:10:00.126Z,1025.6
2023-05-19T07:15:00.160Z,1025.5
2023-05-19T07:20:00.165Z,1025.4
2023-05-19T07:25:00.148Z,1025.5
2023-05-19T07:30:00.177Z,1025.4
2023-05-19T07:35:00.131Z,1025.3
2023-05-19T07:40:00.193Z,1025.3
2023-05-19T07:45:00.148Z,1025.3
2023-05-19T07:50:00.239Z,1025.2
2023-05-19T07:55:00.177Z,1025.1
2023-05-19T08:00:00.215Z,1025
2023-05-19T08:05:00.124Z,1025
2023-05-19T08:10:00.201Z,1024.9
2023-05-19T08:15:01.359Z,1024.9
2023-05-19T08:20:00.110Z,1024.9
2023-05-19T08:25:00.146Z,1024.8
2023-05-19T08:30:00.184Z,1024.9
2023-05-19T08:35:00.119Z,1024.7
2023-05-19T08:40:00.203Z,1024.7
2023-05-19T08:45:00.113Z,1024.7
2023-05-19T08:50:00.166Z,1024.6
2023-05-19T08:55:00.110Z,1024.6
2023-05-19T09:00:00.196Z,1024.4
2023-05-19T09:05:00.250Z,1024.4
2023-05-19T09:10:00.175Z,1024.4
2023-05-19T09:15:00.160Z,1024.3
2023-05-19T09:20:00.177Z,1024.4
2023-05-19T09:25:00.142Z,1024.4
2023-05-19T09:30:00.113Z,1024.3
2023-05-19T09:35:00.149Z,1024.3
2023-05-19T09:40:00.154Z,1024.1
2023-05-19T09:45:00.138Z,1024.1
2023-05-19T09:50:00.146Z,1024.1
2023-05-19T09:55:00.136Z,1024.1
2023-05-19T10:00:00.249Z,1024.1
2023-05-19T10:05:00.244Z,1024.1
2023-05-19T10:10:00.141Z,1024.1
2023-05-19T10:15:00.145Z,1024
2023-05-19T10:20:00.105Z,1023.9
2023-05-19T10:25:00.163Z,1023.9
2023-05-19T10:30:00.203Z,1023.9
2023-05-19T10:35:00.119Z,1023.9
2023-05-19T10:40:00.171Z,1023.9
2023-05-19T10:45:00.162Z,1023.8
2023-05-19T10:50:00.146Z,1023.8
2023-05-19T10:55:00.137Z,1023.7
2023-05-19T11:00:00.143Z,1023.6
2023-05-19T11:05:00.162Z,1023.6
2023-05-19T11:10:00.112Z,1023.6
2023-05-19T11:15:00.168Z,1023.5
2023-05-19T11:20:00.118Z,1023.4
2023-05-19T11:25:00.105Z,1023.5
2023-05-19T11:30:00.216Z,1023.3
2023-05-19T11:35:00.139Z,1023.3
2023-05-19T11:40:00.138Z,1023.3
2023-05-19T11:45:00.140Z,1023.2
2023-05-19T11:50:00.172Z,1023.1
2023-05-19T11:55:00.170Z,1023.1
2023-05-19T12:00:00.105Z,1023.1
2023-05-19T12:05:00.198Z,1023.1
2023-05-19T12:10:00.151Z,1023.1
2023-05-19T12:15:00.127Z,1023
2023-05-19T12:20:00.128Z,1023
2023-05-19T12:25:00.147Z,1022.9
2023-05-19T12:30:00.133Z,1022.9
2023-05-19T12:35:00.125Z,1022.9
2023-05-19T12:40:00.144Z,1022.8
2023-05-19T12:45:02.238Z,1022.8
2023-05-19T12:50:00.131Z,1022.7
2023-05-19T12:55:00.208Z,1022.7
2023-05-19T13:00:00.182Z,1022.6
2023-05-19T13:05:00.141Z,1022.6
2023-05-19T13:10:00.184Z,1022.7
2023-05-19T13:15:00.130Z,1022.6
2023-05-19T13:20:00.229Z,1022.5
2023-05-19T13:25:00.123Z,1022.6
2023-05-19T13:30:00.117Z,1022.4
2023-05-19T13:35:00.126Z,1022.5
2023-05-19T13:40:00.128Z,1022.4
2023-05-19T13:45:00.179Z,1022.3
2023-05-19T13:50:00.129Z,1022.4
2023-05-19T13:55:00.184Z,1022.3
2023-05-19T14:00:02.746Z,1022.2
2023-05-19T14:05:00.154Z,1022.2
2023-05-19T14:10:00.159Z,1022.2
2023-05-19T14:15:00.561Z,1022.2
2023-05-19T14:20:00.132Z,1022.2
2023-05-19T14:25:00.131Z,1022.2
2023-05-19T14:30:00.160Z,1022.1
2023-05-19T14:35:00.113Z,1022.1
2023-05-19T14:40:00.124Z,1022.1
2023-05-19T14:45:00.165Z,1022
2023-05-19T14:50:00.148Z,1022
2023-05-19T14:55:00.146Z,1022
2023-05-19T15:00:00.121Z,1021.9
2023-05-19T15:05:00.146Z,1021.9
2023-05-19T15:10:00.171Z,1021.9
2023-05-19T15:15:00.174Z,1021.8
2023-05-19T15:20:00.174Z,1021.8
2023-05-19T15:25:00.155Z,1021.7
2023-05-19T15:30:00.213Z,1021.7
2023-05-19T15:35:00.101Z,1021.7
2023-05-19T15:40:00.189Z,1021.5
2023-05-19T15:45:00.181Z,1021.6
2023-05-19T15:50:00.165Z,1021.6
2023-05-19T15:55:00.137Z,1021.5
2023-05-19T16:00:00.197Z,1021.5
2023-05-19T16:05:00.122Z,1021.5
2023-05-19T16:10:00.180Z,1021.4
2023-05-19T16:15:00.199Z,1021.4
2023-05-19T16:20:00.152Z,1021.4
2023-05-19T16:25:00.128Z,1021.4
2023-05-19T16:30:00.142Z,1021.4
2023-05-19T16:35:00.120Z,1021.3
2023-05-19T16:40:00.142Z,1021.3
2023-05-19T16:45:00.117Z,1021.2
2023-05-19T16:50:00.151Z,1021.3
2023-05-19T16:55:00.120Z,1021.3
2023-05-19T17:00:00.112Z,1021.2
2023-05-19T17:05:00.128Z,1021.3
2023-05-19T17:10:00.179Z,1021.3
2023-05-19T17:15:00.250Z,1021.1
2023-05-19T17:20:00.112Z,1021.1
2023-05-19T17:25:00.144Z,1021.1
2023-05-19T17:30:00.143Z,1021.1
2023-05-19T17:35:00.133Z,1021
2023-05-19T17:40:00.149Z,1021
2023-05-19T17:45:00.136Z,1021
2023-05-19T17:50:00.150Z,1021
2023-05-19T17:55:00.159Z,1021.1
2023-05-19T18:00:00.164Z,1021.2
2023-05-19T18:05:00.120Z,1021.1
2023-05-19T18:10:00.116Z,1021.3
2023-05-19T18:15:00.138Z,1021.3
2023-05-19T18:20:00.132Z,1021.3
2023-05-19T18:25:00.104Z,1021.4
2023-05-19T18:30:00.133Z,1021.4
2023-05-19T18:35:00.142Z,1021.4
2023-05-19T18:40:00.124Z,1021.4
2023-05-19T18:45:00.110Z,1021.5
2023-05-19T18:50:00.153Z,1021.5
2023-05-19T18:55:00.149Z,1021.5
2023-05-19T19:00:00.101Z,1021.5
2023-05-19T19:05:00.177Z,1021.5
2023-05-19T19:10:00.146Z,1021.5
2023-05-19T19:15:00.092Z,1021.5
2023-05-19T19:20:00.257Z,1021.5
2023-05-19T19:25:00.128Z,1021.5
2023-05-19T19:30:00.154Z,1021.6
2023-05-19T19:35:00.127Z,1021.7
2023-05-19T19:40:00.156Z,1021.7
2023-05-19T19:45:00.134Z,1021.8
2023-05-19T19:50:00.132Z,1021.8
2023-05-19T19:55:00.141Z,1021.8
2023-05-19T20:00:00.137Z,1021.8
2023-05-19T20:05:00.148Z,1021.8
2023-05-19T20:10:00.130Z,1021.9
2023-05-19T20:15:00.149Z,1021.8
2023-05-19T20:20:00.132Z,1021.9
2023-05-19T20:25:00.184Z,1021.9
2023-05-19T20:30:00.156Z,1021.9
2023-05-19T20:35:00.151Z,1021.9
2023-05-19T20:40:00.148Z,1022
2023-05-19T20:45:00.143Z,1022.1
2023-05-19T20:50:00.133Z,1022
2023-05-19T20:55:00.153Z,1022
2023-05-19T21:00:00.104Z,1021.9
2023-05-19T21:05:00.144Z,1021.9
2023-05-19T21:10:00.163Z,1022.1
2023-05-19T21:15:00.138Z,1022
2023-05-19T21:20:00.129Z,1022.1
2023-05-19T21:25:00.128Z,1022
2023-05-19T21:30:00.165Z,1022.1
2023-05-19T21:35:00.118Z,1022
2023-05-19T21:40:00.162Z,1022.1
2023-05-19T21:45:00.141Z,1022
2023-05-19T21:50:00.166Z,1022.1
2023-05-19T21:55:00.143Z,1022.1
2023-05-19T22:00:00.106Z,1022.1
2023-05-19T22:05:00.127Z,1022.1
2023-05-19T22:10:00.165Z,1022.1
2023-05-19T22:15:00.120Z,1022.1
2023-05-19T22:20:00.154Z,1022.2
2023-05-19T22:25:00.116Z,1022.2
2023-05-19T22:30:00.140Z,1022.2
2023-05-19T22:35:00.110Z,1022.2
2023-05-19T22:40:00.161Z,1022.1
2023-05-19T22:45:00.115Z,1022.1
2023-05-19T22:50:00.126Z,1022.2
2023-05-19T22:55:00.122Z,1022.1
2023-05-19T23:00:00.144Z,1022.1
2023-05-19T23:05:00.137Z,1022.1
2023-05-19T23:10:00.176Z,1022.1
2023-05-19T23:15:00.134Z,1022.1
2023-05-19T23:20:00.131Z,1022
2023-05-19T23:25:00.130Z,1022
2023-05-19T23:30:00.163Z,1022
2023-05-19T23:35:00.134Z,1021.9
2023-05-19T23:40:00.160Z,1021.9
2023-05-19T23:45:00.133Z,1021.9
2023-05-19T23:50:00.105Z,1021.9
2023-05-19T23:55:00.119Z,1021.8
